Terminal Aerodrome Forecast
Issued by NWS Blacksburg, VA

Current Version | Previous Version | Graphics & Text | Print | Product List | Glossary On
Versions: 1 2 3 4 5 6 7 8 9 10 11 12 13 14 15 16 17 18 19 20 21 22 23 24 25 26 27 28 29 30 31 32 33 34 35 36 37 38 39 40 41 42 43
000
FTUS41 KRNK 262342
TAFBLF
TAF
KBLF 262342Z 2700/2724 28010G20KT 6SM -SN OVC007
      TEMPO 2700/2704 1SM -SN BR OVC004
     FM270400 29010G20KT 6SM -SN OVC005
     FM271100 29010G20KT 4SM -SN OVC003
      TEMPO 2712/2716 1SM -SN BR OVC002
     FM271600 30009KT P6SM -SHSN SCT007 OVC013
      TEMPO 2716/2720 5SM -SHSN=

USA.gov is the U.S. government's official web portal to all federal, state and local government web resources and services.